createdAt,value
2019-03-10T00:00:29.042Z,100547.27
2019-03-10T00:02:57.330Z,100550.77
2019-03-10T00:05:25.872Z,100542.20
2019-03-10T00:07:54.261Z,100553.18
2019-03-10T00:10:22.559Z,100562.70
2019-03-10T00:12:51.213Z,100566.63
2019-03-10T00:15:19.516Z,100561.81
2019-03-10T00:17:47.827Z,100560.08
2019-03-10T00:20:16.200Z,100554.55
2019-03-10T00:22:44.517Z,100546.83
2019-03-10T00:25:12.981Z,100529.78
2019-03-10T00:27:41.300Z,100527.00
2019-03-10T00:30:14.503Z,100527.16
2019-03-10T00:32:43.182Z,100530.59
2019-03-10T00:35:12.021Z,100519.77
2019-03-10T00:37:40.636Z,100523.77
2019-03-10T00:40:21.002Z,100501.25
2019-03-10T00:42:55.461Z,100508.63
2019-03-10T00:46:01.844Z,100509.82
2019-03-10T00:48:55.981Z,100509.33
2019-03-10T00:51:30.246Z,100509.33
2019-03-10T00:53:58.873Z,100504.42
2019-03-10T00:56:27.429Z,100507.20
2019-03-10T00:58:55.756Z,100503.92
2019-03-10T01:01:24.059Z,100506.80
2019-03-10T01:03:52.362Z,100497.61
2019-03-10T01:06:20.663Z,100497.48
2019-03-10T01:08:48.966Z,100495.59
2019-03-10T01:11:17.625Z,100497.37
2019-03-10T01:13:45.983Z,100497.52
2019-03-10T01:16:14.596Z,100489.81
2019-03-10T01:18:42.968Z,100476.04
2019-03-10T01:21:11.442Z,100477.23
2019-03-10T01:23:40.001Z,100468.05
2019-03-10T01:26:08.611Z,100466.94
2019-03-10T01:28:36.901Z,100458.13
2019-03-10T01:31:23.564Z,100455.13
2019-03-10T01:33:58.042Z,100448.45
2019-03-10T01:36:25.308Z,100441.60
2019-03-10T01:38:53.608Z,100437.95
2019-03-10T01:41:22.338Z,100430.90
2019-03-10T01:43:51.038Z,100436.97
2019-03-10T01:46:19.330Z,100424.67
2019-03-10T01:48:47.642Z,100419.30
2019-03-10T01:51:15.940Z,100410.78
2019-03-10T01:53:44.273Z,100403.73
2019-03-10T01:56:12.562Z,100400.28
2019-03-10T01:58:40.866Z,100395.68
2019-03-10T02:01:09.166Z,100394.98
2019-03-10T02:03:37.486Z,100395.27
2019-03-10T02:06:05.788Z,100387.89
2019-03-10T02:08:34.093Z,100370.50
2019-03-10T02:11:02.406Z,100367.39
2019-03-10T02:13:30.799Z,100350.82
2019-03-10T02:15:59.112Z,100353.77
2019-03-10T02:18:27.412Z,100351.28
2019-03-10T02:20:55.715Z,100346.98
2019-03-10T02:23:24.011Z,100336.48
2019-03-10T02:25:52.636Z,100332.55
2019-03-10T02:28:20.937Z,100324.84
2019-03-10T02:30:49.605Z,100319.79
2019-03-10T02:33:18.107Z,100312.94
2019-03-10T02:35:46.417Z,100313.30
2019-03-10T02:38:14.944Z,100308.34
2019-03-10T02:40:43.674Z,100299.66
2019-03-10T02:43:11.981Z,100291.78
2019-03-10T02:45:40.379Z,100282.59
2019-03-10T02:48:08.695Z,100272.10
2019-03-10T02:50:36.990Z,100264.76
2019-03-10T02:53:05.303Z,100257.55
2019-03-10T02:55:33.628Z,100258.56
2019-03-10T02:58:02.298Z,100253.19
2019-03-10T03:00:30.598Z,100243.84
2019-03-10T03:02:58.909Z,100235.97
2019-03-10T03:05:27.222Z,100238.09
2019-03-10T03:07:55.525Z,100228.75
2019-03-10T03:10:23.819Z,100218.88
2019-03-10T03:12:52.118Z,100222.64
2019-03-10T03:15:20.436Z,100213.63
2019-03-10T03:17:48.721Z,100206.20
2019-03-10T03:20:17.166Z,100200.41
2019-03-10T03:22:45.450Z,100196.11
2019-03-10T03:25:13.843Z,100194.30
2019-03-10T03:27:42.409Z,100195.19
2019-03-10T03:30:13.873Z,100188.84
2019-03-10T03:32:42.179Z,100185.53
2019-03-10T03:35:33.323Z,100174.97
2019-03-10T03:38:01.626Z,100173.20
2019-03-10T03:40:30.600Z,100165.66
2019-03-10T03:42:59.276Z,100154.34
2019-03-10T03:45:27.594Z,100162.22
2019-03-10T03:47:56.175Z,100148.13
2019-03-10T03:50:24.469Z,100147.10
2019-03-10T03:52:53.138Z,100139.53
2019-03-10T03:55:21.716Z,100134.94
2019-03-10T03:57:50.030Z,100125.36
2019-03-10T04:00:20.019Z,100124.55
2019-03-10T04:02:48.337Z,100110.75
2019-03-10T04:05:16.618Z,100104.64
2019-03-10T04:07:44.920Z,100103.17
2019-03-10T04:10:13.539Z,100096.48
2019-03-10T04:12:41.843Z,100088.13
2019-03-10T04:15:10.154Z,100080.56
2019-03-10T04:17:38.866Z,100073.67
2019-03-10T04:20:09.362Z,100079.05
2019-03-10T04:22:37.692Z,100061.52
2019-03-10T04:25:07.372Z,100059.06
2019-03-10T04:27:35.976Z,100052.51
2019-03-10T04:30:06.830Z,100047.59
2019-03-10T04:32:35.131Z,100046.77
2019-03-10T04:35:03.716Z,100035.95
2019-03-10T04:37:32.015Z,100036.45
2019-03-10T04:40:00.322Z,100027.27
2019-03-10T04:42:28.616Z,100019.05
2019-03-10T04:44:56.933Z,100006.11
2019-03-10T04:47:25.220Z,99999.69
2019-03-10T04:49:53.830Z,99988.88
2019-03-10T04:52:22.120Z,99993.46
2019-03-10T04:55:26.001Z,99983.50
2019-03-10T04:57:55.941Z,99981.47
2019-03-10T05:00:24.456Z,99981.47
2019-03-10T05:02:52.747Z,99972.92
2019-03-10T05:05:21.048Z,99979.47
2019-03-10T05:07:49.646Z,99962.60
2019-03-10T05:10:17.950Z,99952.61
2019-03-10T05:12:46.254Z,99944.39
2019-03-10T05:15:14.883Z,99936.20
2019-03-10T05:17:43.207Z,99934.41
2019-03-10T05:20:11.847Z,99924.73
2019-03-10T05:22:40.160Z,99929.66
2019-03-10T05:25:17.579Z,99912.29
2019-03-10T05:27:45.876Z,99899.19
2019-03-10T05:30:14.260Z,99895.25
2019-03-10T05:32:42.572Z,99888.52
2019-03-10T05:35:10.857Z,99886.38
2019-03-10T05:37:39.194Z,99883.90
2019-03-10T05:40:08.232Z,99876.03
2019-03-10T05:42:36.593Z,99861.79
2019-03-10T05:45:08.648Z,99856.87
2019-03-10T05:47:36.944Z,99853.93
2019-03-10T05:50:06.187Z,99851.14
2019-03-10T05:52:34.520Z,99843.28
2019-03-10T05:55:02.828Z,99838.04
2019-03-10T05:57:31.120Z,99829.85
2019-03-10T05:59:59.748Z,99820.68
2019-03-10T06:02:28.024Z,99810.20
2019-03-10T06:04:56.324Z,99807.09
2019-03-10T06:07:24.663Z,99800.53
2019-03-10T06:09:52.947Z,99788.42
2019-03-10T06:12:21.239Z,99777.61
2019-03-10T06:14:49.525Z,99774.50
2019-03-10T06:17:17.862Z,99768.91
2019-03-10T06:19:46.279Z,99764.52
2019-03-10T06:22:14.574Z,99761.21
2019-03-10T06:24:42.872Z,99747.63
2019-03-10T06:27:11.175Z,99727.78
2019-03-10T06:29:39.474Z,99709.80
2019-03-10T06:32:07.786Z,99699.95
2019-03-10T06:34:36.148Z,99694.38
2019-03-10T06:37:04.468Z,99693.89
2019-03-10T06:39:32.792Z,99689.14
2019-03-10T06:42:01.093Z,99682.41
2019-03-10T06:44:29.383Z,99675.18
2019-03-10T06:46:57.664Z,99668.80
2019-03-10T06:49:25.993Z,99672.87
2019-03-10T06:51:54.286Z,99674.67
2019-03-10T06:54:22.946Z,99682.53
2019-03-10T06:56:51.253Z,99681.89
2019-03-10T06:59:19.548Z,99678.77
2019-03-10T07:01:47.899Z,99675.83
2019-03-10T07:04:16.555Z,99655.19
2019-03-10T07:06:44.857Z,99649.27
2019-03-10T07:09:13.511Z,99643.53
2019-03-10T07:11:42.088Z,99632.41
2019-03-10T07:14:10.383Z,99621.58
2019-03-10T07:16:38.711Z,99620.63
2019-03-10T07:19:07.027Z,99612.10
2019-03-10T07:21:35.339Z,99604.75
2019-03-10T07:24:04.209Z,99599.70
2019-03-10T07:26:32.532Z,99597.39
2019-03-10T07:29:02.467Z,99589.54
2019-03-10T07:31:32.420Z,99581.68
2019-03-10T07:34:11.109Z,99575.80
2019-03-10T07:36:41.340Z,99573.99
2019-03-10T07:39:14.238Z,99568.09
2019-03-10T07:42:00.489Z,99564.52
2019-03-10T07:44:46.379Z,99558.28
2019-03-10T07:47:31.324Z,99546.80
2019-03-10T07:50:10.223Z,99540.56
2019-03-10T07:52:56.450Z,99524.34
2019-03-10T07:55:26.384Z,99513.52
2019-03-10T07:58:05.654Z,99491.56
2019-03-10T08:00:35.597Z,99498.60
2019-03-10T08:03:11.789Z,99492.05
2019-03-10T08:05:41.725Z,99488.13
2019-03-10T08:08:17.703Z,99489.13
2019-03-10T08:10:50.523Z,99479.16
2019-03-10T08:13:26.213Z,99473.45
2019-03-10T08:16:12.117Z,99475.55
2019-03-10T08:18:44.872Z,99467.86
2019-03-10T08:21:17.572Z,99444.47
2019-03-10T08:23:50.195Z,99449.08
2019-03-10T08:26:23.094Z,99463.94
2019-03-10T08:28:56.291Z,99465.25
2019-03-10T08:31:26.220Z,99453.78
2019-03-10T08:33:56.134Z,99439.69
2019-03-10T08:36:42.401Z,99434.95
2019-03-10T08:39:18.266Z,99436.89
2019-03-10T08:41:53.924Z,99430.06
2019-03-10T08:44:42.183Z,99413.54
2019-03-10T08:47:12.438Z,99426.00
2019-03-10T08:49:45.688Z,99434.64
2019-03-10T08:52:15.945Z,99411.41
2019-03-10T08:54:54.883Z,99406.82
2019-03-10T08:57:36.790Z,99404.38
2019-03-10T09:00:12.871Z,99398.64
2019-03-10T09:02:51.986Z,99379.98
2019-03-10T09:05:36.926Z,99370.84
2019-03-10T09:08:23.030Z,99370.51
2019-03-10T09:10:56.218Z,99360.67
2019-03-10T09:13:26.145Z,99341.83
2019-03-10T09:15:56.078Z,99358.86
2019-03-10T09:18:28.450Z,99330.70
2019-03-10T09:21:04.698Z,99332.50
2019-03-10T09:23:46.647Z,99328.39
2019-03-10T09:26:25.364Z,99324.78
2019-03-10T09:29:04.088Z,99315.56
2019-03-10T09:31:34.023Z,99317.64
2019-03-10T09:34:06.951Z,99311.25
2019-03-10T09:36:46.293Z,99306.36
2019-03-10T09:39:32.678Z,99303.09
2019-03-10T09:42:12.308Z,99294.75
2019-03-10T09:44:44.904Z,99285.52
2019-03-10T09:47:20.944Z,99275.98
2019-03-10T09:49:59.634Z,99274.13
2019-03-10T09:52:29.883Z,99252.59
2019-03-10T09:55:14.884Z,99232.74
2019-03-10T09:57:44.843Z,99239.61
2019-03-10T10:00:23.523Z,99229.00
2019-03-10T10:02:53.466Z,99222.04
2019-03-10T10:05:26.087Z,99209.42
2019-03-10T10:07:56.029Z,99202.75
2019-03-10T10:10:44.353Z,99223.98
2019-03-10T10:13:30.559Z,99216.84
2019-03-10T10:16:15.853Z,99196.45
2019-03-10T10:18:45.803Z,99197.25
2019-03-10T10:21:32.124Z,99205.15
2019-03-10T10:24:02.065Z,99185.20
2019-03-10T10:26:41.276Z,99196.97
2019-03-10T10:29:27.681Z,99181.20
2019-03-10T10:32:00.575Z,99176.14
2019-03-10T10:34:32.931Z,99171.05
2019-03-10T10:37:05.571Z,99173.95
2019-03-10T10:39:35.526Z,99172.06
2019-03-10T10:42:11.179Z,99162.53
2019-03-10T10:44:56.215Z,99153.91
2019-03-10T10:47:32.514Z,99160.07
2019-03-10T10:50:20.713Z,99159.72
2019-03-10T10:53:02.870Z,99152.95
2019-03-10T10:55:41.902Z,99135.44
2019-03-10T10:58:14.879Z,99153.50
2019-03-10T11:00:56.668Z,99152.40
2019-03-10T11:03:35.259Z,99151.94
2019-03-10T11:06:11.299Z,99137.10
2019-03-10T11:08:46.947Z,99136.45
2019-03-10T11:11:33.185Z,99127.28
2019-03-10T11:14:15.285Z,99113.54
2019-03-10T11:16:45.544Z,99111.90
2019-03-10T11:19:15.650Z,99100.15
2019-03-10T11:21:48.490Z,99089.59
2019-03-10T11:24:27.635Z,99085.22
2019-03-10T11:26:57.571Z,99073.58
2019-03-10T11:29:33.191Z,99076.55
2019-03-10T11:32:09.118Z,99071.87
2019-03-10T11:34:42.005Z,99065.73
2019-03-10T11:37:20.737Z,99057.10
2019-03-10T11:39:50.951Z,99057.02
2019-03-10T11:42:39.221Z,99039.30
2019-03-10T11:45:23.391Z,99036.81
2019-03-10T11:48:05.210Z,99028.55
2019-03-10T11:50:35.162Z,99018.78
2019-03-10T11:53:19.201Z,99012.13
2019-03-10T11:55:45.676Z,99024.86
2019-03-10T11:58:18.480Z,99009.12
2019-03-10T12:00:48.525Z,99007.77
2019-03-10T12:03:18.507Z,98994.22
2019-03-10T12:05:48.413Z,99001.09
2019-03-10T12:08:21.263Z,98984.86
2019-03-10T12:10:49.829Z,99007.17
2019-03-10T12:13:18.121Z,99009.12
2019-03-10T12:15:46.507Z,99010.55
2019-03-10T12:18:14.828Z,99012.77
2019-03-10T12:20:43.143Z,99019.94
2019-03-10T12:23:11.436Z,99002.06
2019-03-10T12:25:39.767Z,99000.66
2019-03-10T12:28:08.140Z,99002.02
2019-03-10T12:30:36.451Z,98993.34
2019-03-10T12:33:05.073Z,98993.61
2019-03-10T12:35:34.686Z,98997.80
2019-03-10T12:38:03.470Z,98995.08
2019-03-10T12:40:31.772Z,98989.32
2019-03-10T12:43:00.076Z,99004.84
2019-03-10T12:45:28.377Z,99003.40
2019-03-10T12:47:56.687Z,99009.02
2019-03-10T12:50:25.076Z,98999.30
2019-03-10T12:52:53.392Z,99003.19
2019-03-10T12:55:21.696Z,98988.10
2019-03-10T12:57:50.298Z,98998.12
2019-03-10T13:00:18.660Z,99015.08
2019-03-10T13:02:47.355Z,99003.48
2019-03-10T13:05:15.869Z,99000.22
2019-03-10T13:07:44.169Z,98999.97
2019-03-10T13:10:12.899Z,98997.06
2019-03-10T13:12:41.303Z,98999.55
2019-03-10T13:15:11.654Z,98984.86
2019-03-10T13:17:39.941Z,98982.91
2019-03-10T13:20:10.461Z,98991.25
2019-03-10T13:22:38.819Z,98992.37
2019-03-10T13:25:10.425Z,98981.22
2019-03-10T13:27:38.803Z,98988.69
2019-03-10T13:30:09.634Z,98983.11
2019-03-10T13:32:37.976Z,98982.70
2019-03-10T13:35:06.852Z,98982.17
2019-03-10T13:37:35.176Z,98972.14
2019-03-10T13:40:05.418Z,98978.70
2019-03-10T13:42:33.741Z,98970.34
2019-03-10T13:45:02.294Z,98967.45
2019-03-10T13:47:30.595Z,98966.56
2019-03-10T13:49:59.152Z,98973.06
2019-03-10T13:52:27.457Z,98971.44
2019-03-10T13:54:55.756Z,99010.59
2019-03-10T13:57:24.058Z,98997.08
2019-03-10T13:59:52.363Z,98993.04
2019-03-10T14:02:20.646Z,99027.07
2019-03-10T14:04:49.438Z,99021.59
2019-03-10T14:07:18.080Z,98999.34
2019-03-10T14:09:46.692Z,99029.95
2019-03-10T14:12:15.200Z,99049.63
2019-03-10T14:14:43.506Z,99039.47
2019-03-10T14:17:12.094Z,99076.90
2019-03-10T14:19:40.409Z,99073.75
2019-03-10T14:22:08.698Z,99080.05
2019-03-10T14:24:37.369Z,99084.50
2019-03-10T14:27:05.741Z,99141.14
2019-03-10T14:29:34.050Z,99087.89
2019-03-10T14:32:02.338Z,99122.04
2019-03-10T14:34:31.020Z,99112.23
2019-03-10T14:36:59.301Z,99113.92
2019-03-10T14:39:27.659Z,99126.30
2019-03-10T14:41:55.959Z,99125.38
2019-03-10T14:44:24.316Z,99148.75
2019-03-10T14:46:52.634Z,99171.22
2019-03-10T14:49:23.492Z,99159.58
2019-03-10T14:51:51.185Z,99169.35
2019-03-10T14:54:19.484Z,99170.81
2019-03-10T14:56:47.788Z,99181.53
2019-03-10T14:59:16.090Z,99178.10
2019-03-10T15:01:44.395Z,99170.17
2019-03-10T15:04:12.954Z,99169.61
2019-03-10T15:06:41.558Z,99176.03
2019-03-10T15:09:09.831Z,99190.74
2019-03-10T15:11:38.138Z,99184.83
2019-03-10T15:14:06.441Z,99181.28
2019-03-10T15:16:35.056Z,99182.59
2019-03-10T15:19:03.370Z,99195.87
2019-03-10T15:21:31.931Z,99206.88
2019-03-10T15:24:00.224Z,99221.47
2019-03-10T15:26:28.611Z,99217.42
2019-03-10T15:28:56.904Z,99253.94
2019-03-10T15:31:29.779Z,99235.29
2019-03-10T15:33:58.450Z,99260.97
2019-03-10T15:36:26.760Z,99257.41
2019-03-10T15:38:55.117Z,99267.72
2019-03-10T15:41:23.458Z,99272.36
2019-03-10T15:43:51.730Z,99312.14
2019-03-10T15:46:20.123Z,99309.80
2019-03-10T15:48:48.452Z,99341.17
2019-03-10T15:51:16.767Z,99317.77
2019-03-10T15:53:45.042Z,99336.14
2019-03-10T15:56:13.377Z,99305.45
2019-03-10T15:58:41.686Z,99359.52
2019-03-10T16:01:10.059Z,99361.81
2019-03-10T16:03:38.651Z,99398.34
2019-03-10T16:06:07.138Z,99392.61
2019-03-10T16:08:35.502Z,99399.83
2019-03-10T16:11:04.062Z,99421.81
2019-03-10T16:13:32.689Z,99451.49
2019-03-10T16:16:01.294Z,99459.53
2019-03-10T16:18:29.599Z,99476.25
2019-03-10T16:20:57.944Z,99520.25
2019-03-10T16:23:26.238Z,99512.37
2019-03-10T16:25:54.527Z,99552.20
2019-03-10T16:28:22.863Z,99584.63
2019-03-10T16:30:51.390Z,99614.59
2019-03-10T16:33:19.722Z,99649.43
2019-03-10T16:35:48.314Z,99690.53
2019-03-10T16:38:16.631Z,99712.86
2019-03-10T16:40:44.938Z,99763.16
2019-03-10T16:43:13.237Z,99775.36
2019-03-10T16:45:41.827Z,99799.93
2019-03-10T16:48:10.132Z,99811.43
2019-03-10T16:50:38.426Z,99829.84
2019-03-10T16:53:06.707Z,99842.55
2019-03-10T16:55:34.999Z,99869.89
2019-03-10T16:58:03.284Z,99876.70
2019-03-10T17:00:31.857Z,99890.11
2019-03-10T17:03:00.497Z,99922.03
2019-03-10T17:05:29.045Z,99921.22
2019-03-10T17:07:57.356Z,99938.33
2019-03-10T17:10:26.850Z,99949.97
2019-03-10T17:12:55.203Z,99979.80
2019-03-10T17:15:24.362Z,99968.27
2019-03-10T17:17:52.808Z,99985.62
2019-03-10T17:20:21.294Z,99999.66
2019-03-10T17:22:49.603Z,100007.20
2019-03-10T17:25:18.232Z,100018.28
2019-03-10T17:27:46.570Z,100029.05
2019-03-10T17:30:17.113Z,100032.97
2019-03-10T17:32:45.637Z,100047.39
2019-03-10T17:35:14.473Z,100054.80
2019-03-10T17:37:43.087Z,100064.44
2019-03-10T17:40:16.517Z,100072.34
2019-03-10T17:42:44.832Z,100088.10
2019-03-10T17:45:17.958Z,100096.83
2019-03-10T17:47:46.318Z,100106.39
2019-03-10T17:50:16.942Z,100110.58
2019-03-10T17:52:45.465Z,100119.70
2019-03-10T17:55:19.977Z,100137.72
2019-03-10T17:57:48.273Z,100134.28
2019-03-10T18:00:28.683Z,100136.85
2019-03-10T18:02:57.013Z,100143.70
2019-03-10T18:05:25.391Z,100155.20
2019-03-10T18:07:53.680Z,100150.33
2019-03-10T18:10:22.062Z,100165.19
2019-03-10T18:12:50.372Z,100167.38
2019-03-10T18:15:19.486Z,100176.11
2019-03-10T18:17:47.950Z,100177.98
2019-03-10T18:20:21.790Z,100187.61
2019-03-10T18:22:50.110Z,100178.98
2019-03-10T18:25:18.648Z,100178.03
2019-03-10T18:27:47.043Z,100190.95
2019-03-10T18:30:17.965Z,100194.27
2019-03-10T18:32:46.510Z,100199.80
2019-03-10T18:35:15.154Z,100198.81
2019-03-10T18:37:43.698Z,100204.67
2019-03-10T18:40:21.114Z,100208.18
2019-03-10T18:42:49.527Z,100207.43
2019-03-10T18:45:18.745Z,100215.42
2019-03-10T18:47:47.372Z,100216.29
2019-03-10T18:50:21.639Z,100222.49
2019-03-10T18:52:50.065Z,100222.79
2019-03-10T18:55:18.983Z,100226.59
2019-03-10T18:57:47.496Z,100229.10
2019-03-10T19:00:29.514Z,100224.36
2019-03-10T19:03:36.010Z,100243.13
2019-03-10T19:06:04.706Z,100262.02
2019-03-10T19:08:33.392Z,100278.61
2019-03-10T19:11:02.135Z,100300.81
2019-03-10T19:13:30.513Z,100280.42
2019-03-10T19:15:58.854Z,100288.19
2019-03-10T19:18:27.140Z,100262.09
2019-03-10T19:20:55.463Z,100255.71
2019-03-10T19:23:23.764Z,100266.27
2019-03-10T19:25:52.075Z,100271.36
2019-03-10T19:28:20.354Z,100288.27
2019-03-10T19:30:48.670Z,100290.41
2019-03-10T19:33:17.270Z,100295.61
2019-03-10T19:35:45.590Z,100307.53
2019-03-10T19:38:13.991Z,100313.95
2019-03-10T19:40:42.393Z,100316.42
2019-03-10T19:43:10.770Z,100332.51
2019-03-10T19:45:39.535Z,100349.88
2019-03-10T19:48:08.250Z,100351.20
2019-03-10T19:50:36.650Z,100358.89
2019-03-10T19:53:05.392Z,100363.20
2019-03-10T19:55:33.740Z,100370.11
2019-03-10T19:58:02.478Z,100373.78
2019-03-10T20:00:30.893Z,100378.28
2019-03-10T20:02:59.280Z,100390.88
2019-03-10T20:05:27.689Z,100383.77
2019-03-10T20:07:56.129Z,100385.90
2019-03-10T20:10:24.599Z,100385.45
2019-03-10T20:12:52.997Z,100381.88
2019-03-10T20:15:23.449Z,100379.52
2019-03-10T20:17:51.815Z,100389.36
2019-03-10T20:20:31.327Z,100390.19
2019-03-10T20:23:01.170Z,100405.12
2019-03-10T20:25:29.700Z,100411.88
2019-03-10T20:27:57.980Z,100412.25
2019-03-10T20:30:27.335Z,100419.36
2019-03-10T20:32:55.740Z,100413.30
2019-03-10T20:35:24.091Z,100416.50
2019-03-10T20:37:52.736Z,100435.12
2019-03-10T20:40:22.840Z,100445.78
2019-03-10T20:42:51.135Z,100458.80
2019-03-10T20:45:19.794Z,100456.89
2019-03-10T20:47:48.267Z,100442.29
2019-03-10T20:50:17.868Z,100443.25
2019-03-10T20:52:46.140Z,100441.59
2019-03-10T20:55:15.363Z,100434.28
2019-03-10T20:57:44.181Z,100439.49
2019-03-10T21:00:18.695Z,100443.30
2019-03-10T21:02:47.096Z,100450.52
2019-03-10T21:05:15.458Z,100454.78
2019-03-10T21:07:44.132Z,100451.11
2019-03-10T21:10:15.506Z,100456.91
2019-03-10T21:12:47.107Z,100454.20
2019-03-10T21:15:20.129Z,100445.06
2019-03-10T21:17:48.536Z,100450.30
2019-03-10T21:20:18.057Z,100443.30
2019-03-10T21:22:46.357Z,100451.02
2019-03-10T21:25:28.327Z,100452.30
2019-03-10T21:27:56.579Z,100452.54
2019-03-10T21:30:26.703Z,100457.40
2019-03-10T21:32:55.273Z,100453.13
2019-03-10T21:35:23.563Z,100446.39
2019-03-10T21:37:52.134Z,100454.55
2019-03-10T21:40:23.363Z,100462.48
2019-03-10T21:43:10.563Z,100477.30
2019-03-10T21:45:38.855Z,100476.68
2019-03-10T21:48:07.169Z,100474.80
2019-03-10T21:50:35.465Z,100473.38
2019-03-10T21:53:03.768Z,100485.48
2019-03-10T21:55:32.050Z,100491.14
2019-03-10T21:58:00.369Z,100490.92
2019-03-10T22:00:28.768Z,100494.58
2019-03-10T22:02:57.077Z,100497.88
2019-03-10T22:05:25.381Z,100495.05
2019-03-10T22:07:53.948Z,100503.25
2019-03-10T22:10:27.455Z,100503.00
2019-03-10T22:12:52.650Z,100497.19
2019-03-10T22:15:21.431Z,100502.66
2019-03-10T22:17:50.374Z,100507.39
2019-03-10T22:20:22.077Z,100500.74
2019-03-10T22:22:50.421Z,100501.11
2019-03-10T22:25:18.753Z,100498.63
2019-03-10T22:27:59.229Z,100505.16
2019-03-10T22:30:28.992Z,100515.33
2019-03-10T22:32:57.447Z,100539.14
2019-03-10T22:35:25.801Z,100539.72
2019-03-10T22:37:54.114Z,100501.81
2019-03-10T22:40:22.493Z,100521.05
2019-03-10T22:42:51.995Z,100517.44
2019-03-10T22:45:21.335Z,100503.91
2019-03-10T22:51:02.606Z,100509.57
2019-03-10T22:53:31.112Z,100511.57
2019-03-10T22:55:59.421Z,100514.44
2019-03-10T22:58:27.696Z,100510.63
2019-03-10T23:00:56.956Z,100503.38
2019-03-10T23:03:25.252Z,100501.02
2019-03-10T23:05:53.740Z,100504.45
2019-03-10T23:08:33.040Z,100497.24
2019-03-10T23:11:02.096Z,100499.02
2019-03-10T23:13:33.032Z,100496.77
2019-03-10T23:16:01.787Z,100489.78
2019-03-10T23:18:30.100Z,100488.72
2019-03-10T23:20:58.396Z,100489.68
2019-03-10T23:23:26.724Z,100478.88
2019-03-10T23:25:55.005Z,100471.06
2019-03-10T23:28:25.991Z,100455.55
2019-03-10T23:30:54.631Z,100456.05
2019-03-10T23:33:23.199Z,100454.86
2019-03-10T23:35:51.507Z,100451.68
2019-03-10T23:38:19.894Z,100447.31
2019-03-10T23:40:48.201Z,100447.05
2019-03-10T23:43:16.533Z,100444.22
2019-03-10T23:45:44.898Z,100457.50
2019-03-10T23:48:13.486Z,100450.52
2019-03-10T23:50:42.152Z,100445.67
2019-03-10T23:53:10.436Z,100445.20
2019-03-10T23:55:38.782Z,100444.25
2019-03-10T23:58:07.064Z,100436.42
